sensor_id;sensor_type;location;lat;lon;timestamp;pressure;altitude;pressure_sealevel;temperature;humidity
63556;BME280;49700;48.072;7.800;2023-04-27T00:01:11;99571.31;;;12.19;nan
63556;BME280;49700;48.072;7.800;2023-04-27T00:03:38;99568.78;;;12.17;nan
63556;BME280;49700;48.072;7.800;2023-04-27T00:06:03;99563.22;;;12.09;nan
63556;BME280;49700;48.072;7.800;2023-04-27T00:08:29;99564.84;;;11.99;nan
63556;BME280;49700;48.072;7.800;2023-04-27T00:10:55;99567.19;;;11.91;nan
63556;BME280;49700;48.072;7.800;2023-04-27T00:13:21;99562.28;;;11.85;nan
63556;BME280;49700;48.072;7.800;2023-04-27T00:15:46;99565.25;;;11.80;nan
63556;BME280;49700;48.072;7.800;2023-04-27T00:18:12;99558.50;;;11.76;nan
63556;BME280;49700;48.072;7.800;2023-04-27T00:20:37;99562.09;;;11.75;nan
63556;BME280;49700;48.072;7.800;2023-04-27T00:23:02;99560.31;;;11.76;nan
63556;BME280;49700;48.072;7.800;2023-04-27T00:25:28;99557.88;;;11.72;nan
63556;BME280;49700;48.072;7.800;2023-04-27T00:27:53;99558.09;;;11.69;nan
63556;BME280;49700;48.072;7.800;2023-04-27T00:30:19;99548.63;;;11.67;nan
63556;BME280;49700;48.072;7.800;2023-04-27T00:32:44;99553.16;;;11.65;nan
63556;BME280;49700;48.072;7.800;2023-04-27T00:35:10;99541.88;;;11.63;nan
63556;BME280;49700;48.072;7.800;2023-04-27T00:37:35;99541.25;;;11.59;nan
63556;BME280;49700;48.072;7.800;2023-04-27T00:40:03;99536.94;;;11.58;nan
63556;BME280;49700;48.072;7.800;2023-04-27T00:42:29;99553.47;;;11.60;nan
63556;BME280;49700;48.072;7.800;2023-04-27T00:44:56;99542.63;;;11.65;nan
63556;BME280;49700;48.072;7.800;2023-04-27T00:47:23;99541.44;;;11.69;nan
63556;BME280;49700;48.072;7.800;2023-04-27T00:49:48;99545.66;;;11.71;nan
63556;BME280;49700;48.072;7.800;2023-04-27T00:52:14;99551.66;;;11.73;nan
63556;BME280;49700;48.072;7.800;2023-04-27T00:54:41;99541.75;;;11.77;nan
63556;BME280;49700;48.072;7.800;2023-04-27T00:57:06;99553.16;;;11.78;nan
63556;BME280;49700;48.072;7.800;2023-04-27T00:59:32;99557.66;;;11.76;nan
63556;BME280;49700;48.072;7.800;2023-04-27T01:01:58;99551.66;;;11.73;nan
63556;BME280;49700;48.072;7.800;2023-04-27T01:04:24;99555.13;;;11.74;nan
63556;BME280;49700;48.072;7.800;2023-04-27T01:06:50;99548.06;;;11.74;nan
63556;BME280;49700;48.072;7.800;2023-04-27T01:09:15;99553.25;;;11.76;nan
63556;BME280;49700;48.072;7.800;2023-04-27T01:11:44;99555.78;;;11.78;nan
63556;BME280;49700;48.072;7.800;2023-04-27T01:14:10;99558.28;;;11.79;nan
63556;BME280;49700;48.072;7.800;2023-04-27T01:16:35;99561.56;;;11.83;nan
63556;BME280;49700;48.072;7.800;2023-04-27T01:19:01;99562.41;;;11.83;nan
63556;BME280;49700;48.072;7.800;2023-04-27T01:21:27;99557.25;;;11.82;nan
63556;BME280;49700;48.072;7.800;2023-04-27T01:23:53;99559.13;;;11.80;nan
63556;BME280;49700;48.072;7.800;2023-04-27T01:26:19;99567.75;;;11.82;nan
63556;BME280;49700;48.072;7.800;2023-04-27T01:28:44;99563.47;;;11.81;nan
63556;BME280;49700;48.072;7.800;2023-04-27T01:31:10;99567.88;;;11.80;nan
63556;BME280;49700;48.072;7.800;2023-04-27T01:33:36;99563.56;;;11.79;nan
63556;BME280;49700;48.072;7.800;2023-04-27T01:36:02;99555.78;;;11.78;nan
63556;BME280;49700;48.072;7.800;2023-04-27T01:38:27;99555.97;;;11.74;nan
63556;BME280;49700;48.072;7.800;2023-04-27T01:40:53;99555.47;;;11.69;nan
63556;BME280;49700;48.072;7.800;2023-04-27T01:43:20;99552.84;;;11.69;nan
63556;BME280;49700;48.072;7.800;2023-04-27T01:45:45;99552.84;;;11.69;nan
63556;BME280;49700;48.072;7.800;2023-04-27T01:48:12;99560.75;;;11.69;nan
63556;BME280;49700;48.072;7.800;2023-04-27T01:50:38;99554.72;;;11.67;nan
63556;BME280;49700;48.072;7.800;2023-04-27T01:53:05;99558.09;;;11.57;nan
63556;BME280;49700;48.072;7.800;2023-04-27T01:55:30;99551.47;;;11.51;nan
63556;BME280;49700;48.072;7.800;2023-04-27T01:57:56;99555.03;;;11.50;nan
63556;BME280;49700;48.072;7.800;2023-04-27T02:00:22;99561.25;;;11.49;nan
63556;BME280;49700;48.072;7.800;2023-04-27T02:02:47;99556.72;;;11.51;nan
63556;BME280;49700;48.072;7.800;2023-04-27T02:05:15;99557.47;;;11.53;nan
63556;BME280;49700;48.072;7.800;2023-04-27T02:07:40;99563.34;;;11.57;nan
63556;BME280;49700;48.072;7.800;2023-04-27T02:10:06;99561.56;;;11.57;nan
63556;BME280;49700;48.072;7.800;2023-04-27T02:12:32;99560.81;;;11.55;nan
63556;BME280;49700;48.072;7.800;2023-04-27T02:14:58;99565.16;;;11.56;nan
63556;BME280;49700;48.072;7.800;2023-04-27T02:17:23;99563.97;;;11.60;nan
63556;BME280;49700;48.072;7.800;2023-04-27T02:19:49;99563.97;;;11.60;nan
63556;BME280;49700;48.072;7.800;2023-04-27T02:22:14;99568.50;;;11.58;nan
63556;BME280;49700;48.072;7.800;2023-04-27T02:24:40;99564.94;;;11.59;nan
63556;BME280;49700;48.072;7.800;2023-04-27T02:27:06;99561.47;;;11.59;nan
63556;BME280;49700;48.072;7.800;2023-04-27T02:29:31;99561.56;;;11.57;nan
63556;BME280;49700;48.072;7.800;2023-04-27T02:31:57;99566.06;;;11.55;nan
63556;BME280;49700;48.072;7.800;2023-04-27T02:34:22;99566.06;;;11.55;nan
63556;BME280;49700;48.072;7.800;2023-04-27T02:36:48;99572.31;;;11.54;nan
63556;BME280;49700;48.072;7.800;2023-04-27T02:39:13;99572.38;;;11.52;nan
63556;BME280;49700;48.072;7.800;2023-04-27T02:41:38;99571.56;;;11.52;nan
63556;BME280;49700;48.072;7.800;2023-04-27T02:44:04;99573.13;;;11.55;nan
63556;BME280;49700;48.072;7.800;2023-04-27T02:46:29;99576.72;;;11.54;nan
63556;BME280;49700;48.072;7.800;2023-04-27T02:48:55;99570.09;;;11.48;nan
63556;BME280;49700;48.072;7.800;2023-04-27T02:51:21;99565.00;;;11.45;nan
63556;BME280;49700;48.072;7.800;2023-04-27T02:53:47;99568.59;;;11.44;nan
63556;BME280;49700;48.072;7.800;2023-04-27T02:56:12;99576.50;;;11.44;nan
63556;BME280;49700;48.072;7.800;2023-04-27T02:58:38;99575.66;;;11.43;nan
63556;BME280;49700;48.072;7.800;2023-04-27T03:01:03;99579.53;;;11.38;nan
63556;BME280;49700;48.072;7.800;2023-04-27T03:03:29;99571.13;;;11.33;nan
63556;BME280;49700;48.072;7.800;2023-04-27T03:05:54;99575.63;;;11.30;nan
63556;BME280;49700;48.072;7.800;2023-04-27T03:08:20;99573.22;;;11.27;nan
63556;BME280;49700;48.072;7.800;2023-04-27T03:10:45;99572.47;;;11.25;nan
63556;BME280;49700;48.072;7.800;2023-04-27T03:13:10;99567.34;;;11.24;nan
63556;BME280;49700;48.072;7.800;2023-04-27T03:15:36;99575.09;;;11.25;nan
63556;BME280;49700;48.072;7.800;2023-04-27T03:18:01;99578.25;;;11.30;nan
63556;BME280;49700;48.072;7.800;2023-04-27T03:20:27;99574.50;;;11.35;nan
63556;BME280;49700;48.072;7.800;2023-04-27T03:22:52;99571.53;;;11.39;nan
63556;BME280;49700;48.072;7.800;2023-04-27T03:25:17;99577.44;;;11.43;nan
63556;BME280;49700;48.072;7.800;2023-04-27T03:27:43;99571.16;;;11.45;nan
63556;BME280;49700;48.072;7.800;2023-04-27T03:30:10;99571.16;;;11.45;nan
63556;BME280;49700;48.072;7.800;2023-04-27T03:32:36;99575.34;;;11.48;nan
63556;BME280;49700;48.072;7.800;2023-04-27T03:35:01;99576.06;;;11.50;nan
63556;BME280;49700;48.072;7.800;2023-04-27T03:37:27;99576.19;;;11.48;nan
63556;BME280;49700;48.072;7.800;2023-04-27T03:39:52;99571.16;;;11.45;nan
63556;BME280;49700;48.072;7.800;2023-04-27T03:42:18;99572.06;;;11.44;nan
63556;BME280;49700;48.072;7.800;2023-04-27T03:44:43;99583.34;;;11.46;nan
63556;BME280;49700;48.072;7.800;2023-04-27T03:47:09;99578.91;;;11.47;nan
63556;BME280;49700;48.072;7.800;2023-04-27T03:49:36;99577.13;;;11.47;nan
63556;BME280;49700;48.072;7.800;2023-04-27T03:52:03;99578.91;;;11.47;nan
63556;BME280;49700;48.072;7.800;2023-04-27T03:54:32;99575.44;;;11.46;nan
63556;BME280;49700;48.072;7.800;2023-04-27T03:56:57;99583.53;;;11.43;nan
63556;BME280;49700;48.072;7.800;2023-04-27T03:59:22;99575.88;;;11.40;nan
63556;BME280;49700;48.072;7.800;2023-04-27T04:01:48;99579.34;;;11.41;nan
63556;BME280;49700;48.072;7.800;2023-04-27T04:04:14;99581.22;;;11.39;nan
63556;BME280;49700;48.072;7.800;2023-04-27T04:06:40;99579.00;;;11.33;nan
63556;BME280;49700;48.072;7.800;2023-04-27T04:09:06;99571.63;;;11.25;nan
63556;BME280;49700;48.072;7.800;2023-04-27T04:11:32;99569.22;;;11.22;nan
63556;BME280;49700;48.072;7.800;2023-04-27T04:13:58;99575.50;;;11.19;nan
63556;BME280;49700;48.072;7.800;2023-04-27T04:16:24;99577.31;;;11.19;nan
63556;BME280;49700;48.072;7.800;2023-04-27T04:18:51;99575.50;;;11.19;nan
63556;BME280;49700;48.072;7.800;2023-04-27T04:21:16;99572.81;;;11.21;nan
63556;BME280;49700;48.072;7.800;2023-04-27T04:23:42;99570.06;;;11.22;nan
63556;BME280;49700;48.072;7.800;2023-04-27T04:26:07;99570.88;;;11.23;nan
63556;BME280;49700;48.072;7.800;2023-04-27T04:28:34;99571.41;;;11.28;nan
63556;BME280;49700;48.072;7.800;2023-04-27T04:31:00;99572.16;;;11.30;nan
63556;BME280;49700;48.072;7.800;2023-04-27T04:33:26;99567.75;;;11.30;nan
63556;BME280;49700;48.072;7.800;2023-04-27T04:35:51;99575.44;;;11.34;nan
63556;BME280;49700;48.072;7.800;2023-04-27T04:38:17;99574.50;;;11.35;nan
63556;BME280;49700;48.072;7.800;2023-04-27T04:40:43;99573.44;;;11.37;nan
63556;BME280;49700;48.072;7.800;2023-04-27T04:43:09;99567.31;;;11.37;nan
63556;BME280;49700;48.072;7.800;2023-04-27T04:45:35;99559.34;;;11.38;nan
63556;BME280;49700;48.072;7.800;2023-04-27T04:48:00;99563.56;;;11.41;nan
63556;BME280;49700;48.072;7.800;2023-04-27T04:50:26;99571.97;;;11.46;nan
63556;BME280;49700;48.072;7.800;2023-04-27T04:52:51;99571.03;;;11.47;nan
63556;BME280;49700;48.072;7.800;2023-04-27T04:55:17;99575.34;;;11.48;nan
63556;BME280;49700;48.072;7.800;2023-04-27T04:57:43;99569.97;;;11.49;nan
63556;BME280;49700;48.072;7.800;2023-04-27T05:00:09;99573.56;;;11.48;nan
63556;BME280;49700;48.072;7.800;2023-04-27T05:02:41;99579.66;;;11.49;nan
63556;BME280;49700;48.072;7.800;2023-04-27T05:05:07;99585.00;;;11.47;nan
63556;BME280;49700;48.072;7.800;2023-04-27T05:07:33;99583.44;;;11.45;nan
63556;BME280;49700;48.072;7.800;2023-04-27T05:09:59;99581.53;;;11.47;nan
63556;BME280;49700;48.072;7.800;2023-04-27T05:12:25;99588.38;;;11.49;nan
63556;BME280;49700;48.072;7.800;2023-04-27T05:14:51;99596.41;;;11.48;nan
63556;BME280;49700;48.072;7.800;2023-04-27T05:17:16;99599.41;;;11.42;nan
63556;BME280;49700;48.072;7.800;2023-04-27T05:19:41;99600.59;;;11.38;nan
63556;BME280;49700;48.072;7.800;2023-04-27T05:22:07;99596.38;;;11.35;nan
63556;BME280;49700;48.072;7.800;2023-04-27T05:24:32;99596.47;;;11.34;nan
63556;BME280;49700;48.072;7.800;2023-04-27T05:26:57;99607.84;;;11.34;nan
63556;BME280;49700;48.072;7.800;2023-04-27T05:29:23;99612.91;;;11.37;nan
63556;BME280;49700;48.072;7.800;2023-04-27T05:31:49;99607.31;;;11.42;nan
63556;BME280;49700;48.072;7.800;2023-04-27T05:34:14;99609.72;;;11.45;nan
63556;BME280;49700;48.072;7.800;2023-04-27T05:36:40;99615.72;;;11.47;nan
63556;BME280;49700;48.072;7.800;2023-04-27T05:39:05;99624.28;;;11.50;nan
63556;BME280;49700;48.072;7.800;2023-04-27T05:41:31;99616.81;;;11.57;nan
63556;BME280;49700;48.072;7.800;2023-04-27T05:43:56;99615.53;;;11.63;nan
63556;BME280;49700;48.072;7.800;2023-04-27T05:46:22;99616.91;;;11.68;nan
63556;BME280;49700;48.072;7.800;2023-04-27T05:48:47;99620.00;;;11.75;nan
63556;BME280;49700;48.072;7.800;2023-04-27T05:51:13;99624.81;;;11.81;nan
63556;BME280;49700;48.072;7.800;2023-04-27T05:53:38;99628.03;;;11.86;nan
63556;BME280;49700;48.072;7.800;2023-04-27T05:56:04;99631.91;;;11.93;nan
63556;BME280;49700;48.072;7.800;2023-04-27T05:58:31;99634.00;;;12.01;nan
63556;BME280;49700;48.072;7.800;2023-04-27T06:00:59;99644.13;;;12.07;nan
63556;BME280;49700;48.072;7.800;2023-04-27T06:03:24;99631.59;;;12.11;nan
63556;BME280;49700;48.072;7.800;2023-04-27T06:05:54;99640.94;;;12.15;nan
63556;BME280;49700;48.072;7.800;2023-04-27T06:08:20;99640.63;;;12.20;nan
63556;BME280;49700;48.072;7.800;2023-04-27T06:10:45;99639.25;;;12.27;nan
63556;BME280;49700;48.072;7.800;2023-04-27T06:13:11;99654.19;;;12.39;nan
63556;BME280;49700;48.072;7.800;2023-04-27T06:15:36;99661.00;;;12.54;nan
63556;BME280;49700;48.072;7.800;2023-04-27T06:18:01;99658.22;;;12.69;nan
63556;BME280;49700;48.072;7.800;2023-04-27T06:20:27;99659.03;;;12.82;nan
63556;BME280;49700;48.072;7.800;2023-04-27T06:22:52;99650.34;;;12.93;nan
63556;BME280;49700;48.072;7.800;2023-04-27T06:25:18;99643.56;;;13.01;nan
63556;BME280;49700;48.072;7.800;2023-04-27T06:27:43;99645.03;;;13.05;nan
63556;BME280;49700;48.072;7.800;2023-04-27T06:30:09;99640.03;;;13.38;nan
63556;BME280;49700;48.072;7.800;2023-04-27T06:32:34;99641.50;;;14.22;nan
63556;BME280;49700;48.072;7.800;2023-04-27T06:35:00;99647.22;;;14.95;nan
63556;BME280;49700;48.072;7.800;2023-04-27T06:37:27;99637.94;;;15.33;nan
63556;BME280;49700;48.072;7.800;2023-04-27T06:39:56;99638.00;;;15.75;nan
63556;BME280;49700;48.072;7.800;2023-04-27T06:42:21;99635.78;;;16.31;nan
63556;BME280;49700;48.072;7.800;2023-04-27T06:44:47;99630.13;;;17.15;nan
63556;BME280;49700;48.072;7.800;2023-04-27T06:47:12;99636.09;;;17.56;nan
63556;BME280;49700;48.072;7.800;2023-04-27T06:49:38;99629.91;;;17.95;nan
63556;BME280;49700;48.072;7.800;2023-04-27T06:52:03;99629.03;;;18.41;nan
63556;BME280;49700;48.072;7.800;2023-04-27T06:54:29;99625.13;;;18.63;nan
63556;BME280;49700;48.072;7.800;2023-04-27T06:56:54;99623.56;;;18.43;nan
63556;BME280;49700;48.072;7.800;2023-04-27T06:59:19;99637.88;;;18.04;nan
63556;BME280;49700;48.072;7.800;2023-04-27T07:01:45;99637.63;;;17.68;nan
63556;BME280;49700;48.072;7.800;2023-04-27T07:04:10;99637.81;;;17.47;nan
63556;BME280;49700;48.072;7.800;2023-04-27T07:06:36;99642.38;;;17.65;nan
63556;BME280;49700;48.072;7.800;2023-04-27T07:09:02;99633.78;;;18.10;nan
63556;BME280;49700;48.072;7.800;2023-04-27T07:11:30;99636.13;;;18.50;nan
63556;BME280;49700;48.072;7.800;2023-04-27T07:13:55;99624.84;;;18.94;nan
63556;BME280;49700;48.072;7.800;2023-04-27T07:16:20;99622.28;;;19.20;nan
63556;BME280;49700;48.072;7.800;2023-04-27T07:18:46;99612.59;;;19.63;nan
63556;BME280;49700;48.072;7.800;2023-04-27T07:21:11;99614.72;;;20.03;nan
63556;BME280;49700;48.072;7.800;2023-04-27T07:23:38;99617.88;;;20.33;nan
63556;BME280;49700;48.072;7.800;2023-04-27T07:26:04;99623.69;;;20.63;nan
63556;BME280;49700;48.072;7.800;2023-04-27T07:28:29;99616.75;;;20.94;nan
63556;BME280;49700;48.072;7.800;2023-04-27T07:30:55;99620.81;;;21.07;nan
63556;BME280;49700;48.072;7.800;2023-04-27T07:33:22;99621.84;;;20.55;nan
63556;BME280;49700;48.072;7.800;2023-04-27T07:35:47;99628.88;;;19.96;nan
63556;BME280;49700;48.072;7.800;2023-04-27T07:38:14;99615.25;;;19.63;nan
63556;BME280;49700;48.072;7.800;2023-04-27T07:40:41;99620.78;;;19.43;nan
63556;BME280;49700;48.072;7.800;2023-04-27T07:43:06;99615.94;;;19.21;nan
63556;BME280;49700;48.072;7.800;2023-04-27T07:45:33;99614.19;;;18.94;nan
63556;BME280;49700;48.072;7.800;2023-04-27T07:48:02;99612.31;;;18.76;nan
63556;BME280;49700;48.072;7.800;2023-04-27T07:50:28;99614.13;;;18.58;nan
63556;BME280;49700;48.072;7.800;2023-04-27T07:52:54;99615.47;;;18.62;nan
63556;BME280;49700;48.072;7.800;2023-04-27T07:55:21;99604.75;;;18.82;nan
63556;BME280;49700;48.072;7.800;2023-04-27T07:57:51;99615.31;;;18.91;nan
63556;BME280;49700;48.072;7.800;2023-04-27T08:00:17;99606.25;;;18.84;nan
63556;BME280;49700;48.072;7.800;2023-04-27T08:02:43;99609.84;;;18.65;nan
63556;BME280;49700;48.072;7.800;2023-04-27T08:05:08;99612.19;;;18.50;nan
63556;BME280;49700;48.072;7.800;2023-04-27T08:07:34;99614.84;;;18.78;nan
63556;BME280;49700;48.072;7.800;2023-04-27T08:10:00;99612.75;;;18.99;nan
63556;BME280;49700;48.072;7.800;2023-04-27T08:12:25;99614.56;;;18.99;nan
63556;BME280;49700;48.072;7.800;2023-04-27T08:14:51;99614.31;;;18.92;nan
63556;BME280;49700;48.072;7.800;2023-04-27T08:17:17;99618.53;;;19.13;nan
63556;BME280;49700;48.072;7.800;2023-04-27T08:19:42;99618.38;;;19.32;nan
63556;BME280;49700;48.072;7.800;2023-04-27T08:22:08;99619.75;;;19.36;nan
63556;BME280;49700;48.072;7.800;2023-04-27T08:24:33;99610.69;;;19.47;nan
63556;BME280;49700;48.072;7.800;2023-04-27T08:26:59;99609.03;;;19.54;nan
63556;BME280;49700;48.072;7.800;2023-04-27T08:29:24;99608.66;;;19.49;nan
63556;BME280;49700;48.072;7.800;2023-04-27T08:31:49;99603.59;;;19.38;nan
63556;BME280;49700;48.072;7.800;2023-04-27T08:34:15;99599.72;;;19.50;nan
63556;BME280;49700;48.072;7.800;2023-04-27T08:36:40;99599.34;;;19.71;nan
63556;BME280;49700;48.072;7.800;2023-04-27T08:39:06;99599.00;;;19.92;nan
63556;BME280;49700;48.072;7.800;2023-04-27T08:41:32;99597.13;;;20.19;nan
63556;BME280;49700;48.072;7.800;2023-04-27T08:43:58;99595.41;;;20.44;nan
63556;BME280;49700;48.072;7.800;2023-04-27T08:46:24;99590.31;;;20.59;nan
63556;BME280;49700;48.072;7.800;2023-04-27T08:48:54;99592.66;;;20.62;nan
63556;BME280;49700;48.072;7.800;2023-04-27T08:51:20;99591.66;;;20.63;nan
63556;BME280;49700;48.072;7.800;2023-04-27T08:53:51;99593.81;;;20.59;nan
63556;BME280;49700;48.072;7.800;2023-04-27T08:56:20;99586.78;;;20.50;nan
63556;BME280;49700;48.072;7.800;2023-04-27T08:58:52;99586.38;;;20.37;nan
63556;BME280;49700;48.072;7.800;2023-04-27T09:01:19;99586.38;;;20.37;nan
63556;BME280;49700;48.072;7.800;2023-04-27T09:03:45;99591.44;;;20.48;nan
63556;BME280;49700;48.072;7.800;2023-04-27T09:06:14;99594.91;;;20.40;nan
63556;BME280;49700;48.072;7.800;2023-04-27T09:11:10;99598.25;;;20.08;nan
63556;BME280;49700;48.072;7.800;2023-04-27T09:13:37;99601.25;;;20.05;nan
63556;BME280;49700;48.072;7.800;2023-04-27T09:16:02;99601.44;;;20.11;nan
63556;BME280;49700;48.072;7.800;2023-04-27T09:18:28;99595.00;;;20.30;nan
63556;BME280;49700;48.072;7.800;2023-04-27T09:20:53;99589.66;;;20.57;nan
63556;BME280;49700;48.072;7.800;2023-04-27T09:23:26;99587.72;;;20.83;nan
63556;BME280;49700;48.072;7.800;2023-04-27T09:25:53;99584.38;;;20.97;nan
63556;BME280;49700;48.072;7.800;2023-04-27T09:28:20;99580.22;;;20.95;nan
63556;BME280;49700;48.072;7.800;2023-04-27T09:30:57;99586.41;;;20.95;nan
63556;BME280;49700;48.072;7.800;2023-04-27T09:33:24;99577.72;;;21.10;nan
63556;BME280;49700;48.072;7.800;2023-04-27T09:35:50;99573.56;;;21.24;nan
63556;BME280;49700;48.072;7.800;2023-04-27T09:38:19;99577.06;;;21.24;nan
63556;BME280;49700;48.072;7.800;2023-04-27T09:40:46;99580.75;;;21.15;nan
63556;BME280;49700;48.072;7.800;2023-04-27T09:43:12;99572.06;;;21.05;nan
63556;BME280;49700;48.072;7.800;2023-04-27T09:45:37;99571.72;;;20.99;nan
63556;BME280;49700;48.072;7.800;2023-04-27T09:48:04;99567.88;;;21.10;nan
63556;BME280;49700;48.072;7.800;2023-04-27T09:50:33;99559.38;;;21.23;nan
63556;BME280;49700;48.072;7.800;2023-04-27T09:52:59;99561.88;;;21.41;nan
63556;BME280;49700;48.072;7.800;2023-04-27T09:55:34;99556.50;;;21.57;nan
63556;BME280;49700;48.072;7.800;2023-04-27T10:06:58;99551.69;;;21.61;nan
63556;BME280;49700;48.072;7.800;2023-04-27T10:09:25;99553.03;;;21.49;nan
63556;BME280;49700;48.072;7.800;2023-04-27T10:11:52;99557.69;;;21.55;nan
63556;BME280;49700;48.072;7.800;2023-04-27T10:14:22;99550.31;;;21.65;nan
63556;BME280;49700;48.072;7.800;2023-04-27T10:16:58;99557.69;;;21.71;nan
63556;BME280;49700;48.072;7.800;2023-04-27T10:19:24;99552.97;;;21.73;nan
63556;BME280;49700;48.072;7.800;2023-04-27T10:22:00;99556.66;;;21.72;nan
63556;BME280;49700;48.072;7.800;2023-04-27T10:24:41;99555.16;;;21.70;nan
63556;BME280;49700;48.072;7.800;2023-04-27T10:27:09;99550.66;;;21.62;nan
63556;BME280;49700;48.072;7.800;2023-04-27T10:29:41;99554.72;;;21.50;nan
63556;BME280;49700;48.072;7.800;2023-04-27T10:34:33;99553.69;;;21.51;nan
63556;BME280;49700;48.072;7.800;2023-04-27T10:37:08;99543.84;;;21.51;nan
63556;BME280;49700;48.072;7.800;2023-04-27T10:39:42;99543.84;;;21.51;nan
63556;BME280;49700;48.072;7.800;2023-04-27T10:42:08;99550.00;;;21.43;nan
63556;BME280;49700;48.072;7.800;2023-04-27T10:44:36;99547.00;;;21.47;nan
63556;BME280;49700;48.072;7.800;2023-04-27T10:47:14;99535.09;;;21.65;nan
63556;BME280;49700;48.072;7.800;2023-04-27T10:49:40;99531.88;;;21.86;nan
63556;BME280;49700;48.072;7.800;2023-04-27T10:52:05;99532.63;;;22.12;nan
63556;BME280;49700;48.072;7.800;2023-04-27T10:54:31;99532.91;;;22.25;nan
63556;BME280;49700;48.072;7.800;2023-04-27T10:57:09;99534.09;;;22.30;nan
63556;BME280;49700;48.072;7.800;2023-04-27T10:59:46;99529.41;;;22.24;nan
63556;BME280;49700;48.072;7.800;2023-04-27T11:02:14;99532.28;;;22.15;nan
63556;BME280;49700;48.072;7.800;2023-04-27T11:04:39;99535.47;;;22.10;nan
63556;BME280;49700;48.072;7.800;2023-04-27T11:07:06;99528.47;;;22.09;nan
63556;BME280;49700;48.072;7.800;2023-04-27T11:09:36;99530.47;;;22.07;nan
63556;BME280;49700;48.072;7.800;2023-04-27T11:12:05;99529.50;;;22.00;nan
63556;BME280;49700;48.072;7.800;2023-04-27T11:14:31;99523.88;;;21.78;nan
63556;BME280;49700;48.072;7.800;2023-04-27T11:16:59;99510.38;;;21.72;nan
63556;BME280;49700;48.072;7.800;2023-04-27T11:19:24;99510.19;;;21.73;nan
63556;BME280;49700;48.072;7.800;2023-04-27T11:21:50;99507.53;;;21.73;nan
63556;BME280;49700;48.072;7.800;2023-04-27T11:24:15;99507.53;;;21.65;nan
63556;BME280;49700;48.072;7.800;2023-04-27T11:26:41;99505.91;;;21.56;nan
63556;BME280;49700;48.072;7.800;2023-04-27T11:29:08;99498.56;;;21.58;nan
63556;BME280;49700;48.072;7.800;2023-04-27T11:31:45;99508.72;;;21.62;nan
63556;BME280;49700;48.072;7.800;2023-04-27T11:34:21;99503.53;;;21.69;nan
63556;BME280;49700;48.072;7.800;2023-04-27T11:37:00;99506.03;;;21.62;nan
63556;BME280;49700;48.072;7.800;2023-04-27T11:39:28;99499.88;;;21.62;nan
63556;BME280;49700;48.072;7.800;2023-04-27T11:41:56;99491.66;;;21.72;nan
63556;BME280;49700;48.072;7.800;2023-04-27T11:44:25;99501.78;;;21.84;nan
63556;BME280;49700;48.072;7.800;2023-04-27T11:46:51;99497.63;;;21.90;nan
63556;BME280;49700;48.072;7.800;2023-04-27T11:49:17;99499.25;;;21.99;nan
63556;BME280;49700;48.072;7.800;2023-04-27T11:51:44;99490.88;;;22.02;nan
63556;BME280;49700;48.072;7.800;2023-04-27T11:54:11;99482.13;;;22.08;nan
63556;BME280;49700;48.072;7.800;2023-04-27T11:56:39;99480.38;;;22.01;nan
63556;BME280;49700;48.072;7.800;2023-04-27T11:59:05;99480.22;;;21.94;nan
63556;BME280;49700;48.072;7.800;2023-04-27T12:01:33;99475.22;;;21.91;nan
63556;BME280;49700;48.072;7.800;2023-04-27T12:04:00;99471.03;;;21.88;nan
63556;BME280;49700;48.072;7.800;2023-04-27T12:06:27;99471.97;;;21.64;nan
63556;BME280;49700;48.072;7.800;2023-04-27T12:08:56;99481.88;;;21.48;nan
63556;BME280;49700;48.072;7.800;2023-04-27T12:11:24;99481.56;;;21.42;nan
63556;BME280;49700;48.072;7.800;2023-04-27T12:13:50;99480.03;;;21.48;nan
63556;BME280;49700;48.072;7.800;2023-04-27T12:16:17;99473.66;;;21.57;nan
63556;BME280;49700;48.072;7.800;2023-04-27T12:18:42;99461.94;;;21.67;nan
63556;BME280;49700;48.072;7.800;2023-04-27T12:21:08;99461.72;;;21.76;nan
63556;BME280;49700;48.072;7.800;2023-04-27T12:23:34;99457.84;;;21.87;nan
63556;BME280;49700;48.072;7.800;2023-04-27T12:26:00;99464.00;;;21.96;nan
63556;BME280;49700;48.072;7.800;2023-04-27T12:28:25;99464.78;;;22.04;nan
63556;BME280;49700;48.072;7.800;2023-04-27T12:30:51;99466.25;;;22.15;nan
63556;BME280;49700;48.072;7.800;2023-04-27T12:33:16;99467.88;;;22.16;nan
63556;BME280;49700;48.072;7.800;2023-04-27T12:35:42;99472.41;;;22.16;nan
63556;BME280;49700;48.072;7.800;2023-04-27T12:38:07;99472.94;;;22.11;nan
63556;BME280;49700;48.072;7.800;2023-04-27T12:40:33;99470.25;;;22.11;nan
63556;BME280;49700;48.072;7.800;2023-04-27T12:42:59;99469.91;;;22.14;nan
63556;BME280;49700;48.072;7.800;2023-04-27T12:45:25;99464.56;;;22.14;nan
63556;BME280;49700;48.072;7.800;2023-04-27T12:47:51;99466.25;;;22.15;nan
63556;BME280;49700;48.072;7.800;2023-04-27T12:50:17;99459.19;;;22.14;nan
63556;BME280;49700;48.072;7.800;2023-04-27T12:52:43;99455.34;;;22.17;nan
63556;BME280;49700;48.072;7.800;2023-04-27T12:55:08;99453.03;;;22.14;nan
63556;BME280;49700;48.072;7.800;2023-04-27T12:57:33;99454.34;;;22.18;nan
63556;BME280;49700;48.072;7.800;2023-04-27T13:00:00;99446.69;;;22.15;nan
63556;BME280;49700;48.072;7.800;2023-04-27T13:02:26;99446.50;;;22.16;nan
63556;BME280;49700;48.072;7.800;2023-04-27T13:04:51;99441.13;;;22.16;nan
63556;BME280;49700;48.072;7.800;2023-04-27T13:07:17;99445.19;;;22.12;nan
63556;BME280;49700;48.072;7.800;2023-04-27T13:09:43;99451.38;;;22.13;nan
63556;BME280;49700;48.072;7.800;2023-04-27T13:12:08;99452.03;;;22.15;nan
63556;BME280;49700;48.072;7.800;2023-04-27T13:14:34;99449.72;;;22.12;nan
63556;BME280;49700;48.072;7.800;2023-04-27T13:16:59;99447.88;;;22.12;nan
63556;BME280;49700;48.072;7.800;2023-04-27T13:19:26;99445.66;;;22.24;nan
63556;BME280;49700;48.072;7.800;2023-04-27T13:21:52;99445.06;;;22.37;nan
63556;BME280;49700;48.072;7.800;2023-04-27T13:24:17;99447.09;;;22.35;nan
63556;BME280;49700;48.072;7.800;2023-04-27T13:26:42;99443.94;;;22.31;nan
63556;BME280;49700;48.072;7.800;2023-04-27T13:29:08;99437.75;;;22.30;nan
63556;BME280;49700;48.072;7.800;2023-04-27T13:31:33;99434.41;;;22.28;nan